sensor_id;sensor_type;location;lat;lon;timestamp;temperature;humidity
50989;DHT22;37008;52.210;21.112;2023-02-28T00:00:12;-5.60;99.90
50989;DHT22;37008;52.210;21.112;2023-02-28T00:02:42;-5.60;99.90
50989;DHT22;37008;52.210;21.112;2023-02-28T00:05:10;-5.70;99.90
50989;DHT22;37008;52.210;21.112;2023-02-28T00:07:40;-5.70;99.90
50989;DHT22;37008;52.210;21.112;2023-02-28T00:10:06;-5.70;99.90
50989;DHT22;37008;52.210;21.112;2023-02-28T00:13:10;-5.70;99.90
50989;DHT22;37008;52.210;21.112;2023-02-28T00:16:09;-5.80;99.90
50989;DHT22;37008;52.210;21.112;2023-02-28T00:18:59;-5.80;99.90
50989;DHT22;37008;52.210;21.112;2023-02-28T00:21:57;-5.90;99.90
50989;DHT22;37008;52.210;21.112;2023-02-28T00:28:41;-5.90;99.90
50989;DHT22;37008;52.210;21.112;2023-02-28T00:31:22;-5.90;99.90
50989;DHT22;37008;52.210;21.112;2023-02-28T00:33:48;-6.00;99.90
50989;DHT22;37008;52.210;21.112;2023-02-28T00:36:23;-6.00;99.90
50989;DHT22;37008;52.210;21.112;2023-02-28T00:38:49;-6.00;99.90
50989;DHT22;37008;52.210;21.112;2023-02-28T00:41:15;-6.10;99.90
50989;DHT22;37008;52.210;21.112;2023-02-28T00:43:41;-6.10;99.90
50989;DHT22;37008;52.210;21.112;2023-02-28T00:46:09;-6.20;99.90
50989;DHT22;37008;52.210;21.112;2023-02-28T00:48:38;-6.10;99.90
50989;DHT22;37008;52.210;21.112;2023-02-28T00:51:07;-6.10;99.90
50989;DHT22;37008;52.210;21.112;2023-02-28T00:54:35;-6.20;99.90
50989;DHT22;37008;52.210;21.112;2023-02-28T00:57:01;-6.20;99.90
50989;DHT22;37008;52.210;21.112;2023-02-28T00:59:27;-6.20;99.90
50989;DHT22;37008;52.210;21.112;2023-02-28T01:12:07;-6.30;99.90
50989;DHT22;37008;52.210;21.112;2023-02-28T01:14:46;-6.30;99.90
50989;DHT22;37008;52.210;21.112;2023-02-28T01:17:15;-6.40;99.90
50989;DHT22;37008;52.210;21.112;2023-02-28T01:19:41;-6.40;99.90
50989;DHT22;37008;52.210;21.112;2023-02-28T01:22:06;-6.40;99.90
50989;DHT22;37008;52.210;21.112;2023-02-28T01:24:32;-6.40;99.90
50989;DHT22;37008;52.210;21.112;2023-02-28T01:26:58;-6.40;99.90
50989;DHT22;37008;52.210;21.112;2023-02-28T01:29:24;-6.40;99.90
50989;DHT22;37008;52.210;21.112;2023-02-28T01:31:49;-6.50;99.90
50989;DHT22;37008;52.210;21.112;2023-02-28T01:34:16;-6.50;99.90
50989;DHT22;37008;52.210;21.112;2023-02-28T01:36:41;-6.40;99.90
50989;DHT22;37008;52.210;21.112;2023-02-28T01:39:13;-6.40;99.90
50989;DHT22;37008;52.210;21.112;2023-02-28T01:41:56;-6.50;99.90
50989;DHT22;37008;52.210;21.112;2023-02-28T01:47:23;-6.50;99.90
50989;DHT22;37008;52.210;21.112;2023-02-28T01:49:50;-6.50;99.90
50989;DHT22;37008;52.210;21.112;2023-02-28T01:52:17;-6.60;99.90
50989;DHT22;37008;52.210;21.112;2023-02-28T01:54:46;-6.60;99.90
50989;DHT22;37008;52.210;21.112;2023-02-28T01:57:16;-6.60;99.90
50989;DHT22;37008;52.210;21.112;2023-02-28T01:59:48;-6.60;99.90
50989;DHT22;37008;52.210;21.112;2023-02-28T02:02:17;-6.60;99.90
50989;DHT22;37008;52.210;21.112;2023-02-28T02:05:06;-6.60;99.90
50989;DHT22;37008;52.210;21.112;2023-02-28T02:07:36;-6.60;99.90
50989;DHT22;37008;52.210;21.112;2023-02-28T02:18:54;-6.70;99.90
50989;DHT22;37008;52.210;21.112;2023-02-28T02:27:33;-6.70;99.90
50989;DHT22;37008;52.210;21.112;2023-02-28T02:33:02;-6.80;99.90
50989;DHT22;37008;52.210;21.112;2023-02-28T02:38:09;-6.80;99.90
50989;DHT22;37008;52.210;21.112;2023-02-28T02:40:43;-6.80;99.90
50989;DHT22;37008;52.210;21.112;2023-02-28T02:43:19;-6.80;99.90
50989;DHT22;37008;52.210;21.112;2023-02-28T02:45:53;-6.80;99.90
50989;DHT22;37008;52.210;21.112;2023-02-28T02:48:25;-6.80;99.90
50989;DHT22;37008;52.210;21.112;2023-02-28T02:50:55;-6.80;99.90
50989;DHT22;37008;52.210;21.112;2023-02-28T02:53:27;-6.80;99.90
50989;DHT22;37008;52.210;21.112;2023-02-28T02:55:55;-6.90;99.90
50989;DHT22;37008;52.210;21.112;2023-02-28T02:58:25;-6.80;99.90
50989;DHT22;37008;52.210;21.112;2023-02-28T03:00:56;-6.80;99.90
50989;DHT22;37008;52.210;21.112;2023-02-28T03:03:23;-6.80;99.90
50989;DHT22;37008;52.210;21.112;2023-02-28T03:05:56;-6.90;99.90
50989;DHT22;37008;52.210;21.112;2023-02-28T03:08:22;-6.80;99.90
50989;DHT22;37008;52.210;21.112;2023-02-28T03:10:56;-6.80;99.90
50989;DHT22;37008;52.210;21.112;2023-02-28T03:24:54;-6.90;99.90
50989;DHT22;37008;52.210;21.112;2023-02-28T03:27:29;-6.90;99.90
50989;DHT22;37008;52.210;21.112;2023-02-28T03:30:00;-6.90;99.90
50989;DHT22;37008;52.210;21.112;2023-02-28T03:35:16;-7.00;99.90
50989;DHT22;37008;52.210;21.112;2023-02-28T03:38:03;-7.00;99.90
50989;DHT22;37008;52.210;21.112;2023-02-28T03:40:33;-6.90;99.90
50989;DHT22;37008;52.210;21.112;2023-02-28T03:43:03;-7.00;99.90
50989;DHT22;37008;52.210;21.112;2023-02-28T03:45:35;-7.00;99.90
50989;DHT22;37008;52.210;21.112;2023-02-28T03:48:15;-7.00;99.90
50989;DHT22;37008;52.210;21.112;2023-02-28T03:50:46;-7.00;99.90
50989;DHT22;37008;52.210;21.112;2023-02-28T03:53:27;-6.90;99.90
50989;DHT22;37008;52.210;21.112;2023-02-28T03:56:05;-7.00;99.90
50989;DHT22;37008;52.210;21.112;2023-02-28T03:58:55;-7.00;99.90
50989;DHT22;37008;52.210;21.112;2023-02-28T04:03:51;-7.10;99.90
50989;DHT22;37008;52.210;21.112;2023-02-28T04:06:20;-7.10;99.90
50989;DHT22;37008;52.210;21.112;2023-02-28T04:08:46;-7.10;99.90
50989;DHT22;37008;52.210;21.112;2023-02-28T04:14:00;-7.10;99.90
50989;DHT22;37008;52.210;21.112;2023-02-28T04:16:26;-7.10;99.90
50989;DHT22;37008;52.210;21.112;2023-02-28T04:18:52;-7.10;99.90
50989;DHT22;37008;52.210;21.112;2023-02-28T04:21:17;-7.00;99.90
50989;DHT22;37008;52.210;21.112;2023-02-28T04:23:46;-7.10;99.90
50989;DHT22;37008;52.210;21.112;2023-02-28T04:26:11;-7.10;99.90
50989;DHT22;37008;52.210;21.112;2023-02-28T04:28:38;-7.10;99.90
50989;DHT22;37008;52.210;21.112;2023-02-28T04:31:04;-7.10;99.90
50989;DHT22;37008;52.210;21.112;2023-02-28T04:33:31;-7.10;99.90
50989;DHT22;37008;52.210;21.112;2023-02-28T04:36:08;-7.10;99.90
50989;DHT22;37008;52.210;21.112;2023-02-28T04:38:35;-7.10;99.90
50989;DHT22;37008;52.210;21.112;2023-02-28T04:41:01;-7.20;99.90
50989;DHT22;37008;52.210;21.112;2023-02-28T04:43:28;-7.20;99.90
50989;DHT22;37008;52.210;21.112;2023-02-28T04:45:57;-7.20;99.90
50989;DHT22;37008;52.210;21.112;2023-02-28T04:48:24;-7.20;99.90
50989;DHT22;37008;52.210;21.112;2023-02-28T04:50:51;-7.20;99.90
50989;DHT22;37008;52.210;21.112;2023-02-28T04:53:17;-7.20;99.90
50989;DHT22;37008;52.210;21.112;2023-02-28T04:55:43;-7.20;99.90
50989;DHT22;37008;52.210;21.112;2023-02-28T04:58:09;-7.20;99.90
50989;DHT22;37008;52.210;21.112;2023-02-28T05:00:35;-7.20;99.90
50989;DHT22;37008;52.210;21.112;2023-02-28T05:03:01;-7.20;99.90
50989;DHT22;37008;52.210;21.112;2023-02-28T05:05:27;-7.20;99.90
50989;DHT22;37008;52.210;21.112;2023-02-28T05:07:53;-7.20;99.90
50989;DHT22;37008;52.210;21.112;2023-02-28T05:10:21;-7.20;99.90
50989;DHT22;37008;52.210;21.112;2023-02-28T05:12:47;-7.20;99.90
50989;DHT22;37008;52.210;21.112;2023-02-28T05:15:14;-7.20;99.90
50989;DHT22;37008;52.210;21.112;2023-02-28T05:17:40;-7.20;99.90
50989;DHT22;37008;52.210;21.112;2023-02-28T05:20:07;-7.20;99.90
50989;DHT22;37008;52.210;21.112;2023-02-28T05:22:36;-7.20;99.90
50989;DHT22;37008;52.210;21.112;2023-02-28T05:25:03;-7.20;99.90
50989;DHT22;37008;52.210;21.112;2023-02-28T05:27:30;-7.20;99.90
50989;DHT22;37008;52.210;21.112;2023-02-28T05:29:56;-7.20;99.90
50989;DHT22;37008;52.210;21.112;2023-02-28T05:32:22;-7.10;99.90
50989;DHT22;37008;52.210;21.112;2023-02-28T05:34:47;-7.10;99.90
50989;DHT22;37008;52.210;21.112;2023-02-28T05:37:14;-7.20;99.90
50989;DHT22;37008;52.210;21.112;2023-02-28T05:39:41;-7.10;99.90
50989;DHT22;37008;52.210;21.112;2023-02-28T05:42:07;-7.10;99.90
50989;DHT22;37008;52.210;21.112;2023-02-28T05:44:33;-7.10;99.90
50989;DHT22;37008;52.210;21.112;2023-02-28T05:46:59;-7.10;99.90
50989;DHT22;37008;52.210;21.112;2023-02-28T05:49:24;-7.10;99.90
50989;DHT22;37008;52.210;21.112;2023-02-28T05:51:50;-7.00;99.90
50989;DHT22;37008;52.210;21.112;2023-02-28T05:54:16;-6.80;99.90
50989;DHT22;37008;52.210;21.112;2023-02-28T05:56:41;-6.90;99.90
50989;DHT22;37008;52.210;21.112;2023-02-28T05:59:10;-6.90;99.90
50989;DHT22;37008;52.210;21.112;2023-02-28T06:01:38;-6.90;99.90
50989;DHT22;37008;52.210;21.112;2023-02-28T06:04:06;-6.80;99.90
50989;DHT22;37008;52.210;21.112;2023-02-28T06:06:32;-6.80;99.90
50989;DHT22;37008;52.210;21.112;2023-02-28T06:09:00;-6.70;99.90
50989;DHT22;37008;52.210;21.112;2023-02-28T06:11:26;-6.70;99.90
50989;DHT22;37008;52.210;21.112;2023-02-28T06:13:57;-6.60;99.90
50989;DHT22;37008;52.210;21.112;2023-02-28T06:16:25;-6.50;99.90
50989;DHT22;37008;52.210;21.112;2023-02-28T06:18:50;-6.40;99.90
50989;DHT22;37008;52.210;21.112;2023-02-28T06:21:18;-6.40;99.90
50989;DHT22;37008;52.210;21.112;2023-02-28T06:23:44;-6.30;99.90
50989;DHT22;37008;52.210;21.112;2023-02-28T06:26:10;-6.20;99.90
50989;DHT22;37008;52.210;21.112;2023-02-28T06:28:36;-6.10;99.90
50989;DHT22;37008;52.210;21.112;2023-02-28T06:31:09;-6.00;99.90
50989;DHT22;37008;52.210;21.112;2023-02-28T06:33:37;-6.00;99.90
50989;DHT22;37008;52.210;21.112;2023-02-28T06:36:03;-5.90;99.90
50989;DHT22;37008;52.210;21.112;2023-02-28T06:38:29;-5.80;99.90
50989;DHT22;37008;52.210;21.112;2023-02-28T06:40:56;-5.70;99.90
50989;DHT22;37008;52.210;21.112;2023-02-28T06:43:22;-5.50;99.90
50989;DHT22;37008;52.210;21.112;2023-02-28T06:45:48;-5.40;99.90
50989;DHT22;37008;52.210;21.112;2023-02-28T06:48:14;-5.30;99.90
50989;DHT22;37008;52.210;21.112;2023-02-28T06:50:40;-5.30;99.90
50989;DHT22;37008;52.210;21.112;2023-02-28T06:53:05;-5.20;99.90
50989;DHT22;37008;52.210;21.112;2023-02-28T06:55:31;-5.00;99.90
50989;DHT22;37008;52.210;21.112;2023-02-28T06:57:57;-4.90;99.90
50989;DHT22;37008;52.210;21.112;2023-02-28T07:00:23;-4.80;99.90
50989;DHT22;37008;52.210;21.112;2023-02-28T07:02:50;-4.60;99.90
50989;DHT22;37008;52.210;21.112;2023-02-28T07:05:15;-4.60;99.90
50989;DHT22;37008;52.210;21.112;2023-02-28T07:07:41;-4.40;99.90
50989;DHT22;37008;52.210;21.112;2023-02-28T07:10:12;-4.40;99.90
50989;DHT22;37008;52.210;21.112;2023-02-28T07:12:40;-4.30;99.90
50989;DHT22;37008;52.210;21.112;2023-02-28T07:15:06;-4.10;99.90
50989;DHT22;37008;52.210;21.112;2023-02-28T07:17:32;-4.10;99.90
50989;DHT22;37008;52.210;21.112;2023-02-28T07:19:57;-3.90;99.90
50989;DHT22;37008;52.210;21.112;2023-02-28T07:22:23;-3.80;99.90
50989;DHT22;37008;52.210;21.112;2023-02-28T07:24:50;-3.70;99.90
50989;DHT22;37008;52.210;21.112;2023-02-28T07:27:15;-3.70;99.90
50989;DHT22;37008;52.210;21.112;2023-02-28T07:29:49;-3.50;99.90
50989;DHT22;37008;52.210;21.112;2023-02-28T07:32:15;-3.40;99.90
50989;DHT22;37008;52.210;21.112;2023-02-28T07:34:41;-3.30;99.90
50989;DHT22;37008;52.210;21.112;2023-02-28T07:37:07;-3.20;99.90
50989;DHT22;37008;52.210;21.112;2023-02-28T07:39:32;-3.10;99.90
50989;DHT22;37008;52.210;21.112;2023-02-28T07:41:58;-2.90;99.90
50989;DHT22;37008;52.210;21.112;2023-02-28T07:44:25;-2.80;99.90
50989;DHT22;37008;52.210;21.112;2023-02-28T07:46:51;-2.80;99.90
50989;DHT22;37008;52.210;21.112;2023-02-28T07:49:18;-2.70;99.90
50989;DHT22;37008;52.210;21.112;2023-02-28T07:51:43;-2.60;99.90
50989;DHT22;37008;52.210;21.112;2023-02-28T07:54:09;-2.40;99.90
50989;DHT22;37008;52.210;21.112;2023-02-28T07:56:35;-2.40;99.90
50989;DHT22;37008;52.210;21.112;2023-02-28T07:59:00;-2.30;99.90
50989;DHT22;37008;52.210;21.112;2023-02-28T08:01:27;-2.20;99.90
50989;DHT22;37008;52.210;21.112;2023-02-28T08:03:52;-2.10;99.90
50989;DHT22;37008;52.210;21.112;2023-02-28T08:06:22;-2.00;99.90
50989;DHT22;37008;52.210;21.112;2023-02-28T08:08:48;-2.00;99.90
50989;DHT22;37008;52.210;21.112;2023-02-28T08:11:17;-1.90;99.90
50989;DHT22;37008;52.210;21.112;2023-02-28T08:17:28;-1.80;99.90
50989;DHT22;37008;52.210;21.112;2023-02-28T08:19:53;-1.70;99.90
50989;DHT22;37008;52.210;21.112;2023-02-28T08:22:19;-1.70;99.90
50989;DHT22;37008;52.210;21.112;2023-02-28T08:24:45;-1.60;99.90
50989;DHT22;37008;52.210;21.112;2023-02-28T08:27:10;-1.60;99.90
50989;DHT22;37008;52.210;21.112;2023-02-28T08:29:39;-1.60;99.90
50989;DHT22;37008;52.210;21.112;2023-02-28T08:32:06;-1.50;99.90
50989;DHT22;37008;52.210;21.112;2023-02-28T08:34:32;-1.40;99.90
50989;DHT22;37008;52.210;21.112;2023-02-28T08:36:58;-1.40;99.90
50989;DHT22;37008;52.210;21.112;2023-02-28T08:39:24;-1.30;99.00
50989;DHT22;37008;52.210;21.112;2023-02-28T08:41:50;-1.20;97.90
50989;DHT22;37008;52.210;21.112;2023-02-28T08:44:18;-1.10;96.60
50989;DHT22;37008;52.210;21.112;2023-02-28T08:46:44;-1.10;96.20
50989;DHT22;37008;52.210;21.112;2023-02-28T08:49:09;-1.00;95.40
50989;DHT22;37008;52.210;21.112;2023-02-28T08:51:35;-0.70;94.50
50989;DHT22;37008;52.210;21.112;2023-02-28T08:54:04;-0.90;94.00
50989;DHT22;37008;52.210;21.112;2023-02-28T08:56:30;-0.80;93.50
50989;DHT22;37008;52.210;21.112;2023-02-28T08:58:57;-0.80;92.40
50989;DHT22;37008;52.210;21.112;2023-02-28T09:01:25;-0.80;92.20
50989;DHT22;37008;52.210;21.112;2023-02-28T09:03:52;-0.80;91.90
50989;DHT22;37008;52.210;21.112;2023-02-28T09:06:19;-0.80;91.50
50989;DHT22;37008;52.210;21.112;2023-02-28T09:08:45;-0.70;90.90
50989;DHT22;37008;52.210;21.112;2023-02-28T09:11:12;-0.70;90.00
50989;DHT22;37008;52.210;21.112;2023-02-28T09:13:38;-0.60;89.00
50989;DHT22;37008;52.210;21.112;2023-02-28T09:16:06;-0.60;87.50
50989;DHT22;37008;52.210;21.112;2023-02-28T09:18:34;-0.50;86.30
50989;DHT22;37008;52.210;21.112;2023-02-28T09:21:03;-0.50;85.50
50989;DHT22;37008;52.210;21.112;2023-02-28T09:23:30;-0.50;84.80
50989;DHT22;37008;52.210;21.112;2023-02-28T09:25:56;-0.50;84.30
50989;DHT22;37008;52.210;21.112;2023-02-28T09:28:22;-0.40;84.00
50989;DHT22;37008;52.210;21.112;2023-02-28T09:30:50;-0.40;83.60
50989;DHT22;37008;52.210;21.112;2023-02-28T09:33:19;-0.30;83.70
50989;DHT22;37008;52.210;21.112;2023-02-28T09:35:47;-0.30;82.50
50989;DHT22;37008;52.210;21.112;2023-02-28T09:38:12;-0.10;82.20
50989;DHT22;37008;52.210;21.112;2023-02-28T09:40:49;-0.20;81.90
50989;DHT22;37008;52.210;21.112;2023-02-28T09:43:25;-0.30;81.40
50989;DHT22;37008;52.210;21.112;2023-02-28T09:46:19;-0.20;80.80
50989;DHT22;37008;52.210;21.112;2023-02-28T09:48:49;-0.20;79.90
50989;DHT22;37008;52.210;21.112;2023-02-28T09:54:22;-0.10;79.60
50989;DHT22;37008;52.210;21.112;2023-02-28T09:56:56;0.00;78.60
50989;DHT22;37008;52.210;21.112;2023-02-28T10:05:16;0.30;78.30
50989;DHT22;37008;52.210;21.112;2023-02-28T10:13:39;0.40;77.60
50989;DHT22;37008;52.210;21.112;2023-02-28T10:16:16;0.40;77.10
50989;DHT22;37008;52.210;21.112;2023-02-28T10:18:54;0.40;76.70
50989;DHT22;37008;52.210;21.112;2023-02-28T10:21:34;0.40;76.30
50989;DHT22;37008;52.210;21.112;2023-02-28T10:26:59;0.50;75.20
50989;DHT22;37008;52.210;21.112;2023-02-28T10:29:25;0.60;74.30
50989;DHT22;37008;52.210;21.112;2023-02-28T10:31:55;0.70;74.20
50989;DHT22;37008;52.210;21.112;2023-02-28T10:34:41;0.60;73.80
50989;DHT22;37008;52.210;21.112;2023-02-28T10:55:33;1.00;72.80
50989;DHT22;37008;52.210;21.112;2023-02-28T11:01:21;1.10;72.70
50989;DHT22;37008;52.210;21.112;2023-02-28T11:13:44;1.30;72.00
50989;DHT22;37008;52.210;21.112;2023-02-28T11:16:33;1.30;70.70
50989;DHT22;37008;52.210;21.112;2023-02-28T11:19:06;1.40;70.30
50989;DHT22;37008;52.210;21.112;2023-02-28T11:21:52;1.30;70.10
50989;DHT22;37008;52.210;21.112;2023-02-28T11:24:28;1.30;70.10
50989;DHT22;37008;52.210;21.112;2023-02-28T11:26:56;1.30;69.90
50989;DHT22;37008;52.210;21.112;2023-02-28T11:29:25;1.30;69.90
50989;DHT22;37008;52.210;21.112;2023-02-28T11:32:19;1.40;69.70
50989;DHT22;37008;52.210;21.112;2023-02-28T11:34:46;1.30;68.80
50989;DHT22;37008;52.210;21.112;2023-02-28T11:37:18;1.40;69.10
50989;DHT22;37008;52.210;21.112;2023-02-28T11:39:45;1.40;68.60
50989;DHT22;37008;52.210;21.112;2023-02-28T11:45:30;1.50;67.80
50989;DHT22;37008;52.210;21.112;2023-02-28T12:11:39;2.00;67.20
50989;DHT22;37008;52.210;21.112;2023-02-28T12:19:53;2.00;66.30
50989;DHT22;37008;52.210;21.112;2023-02-28T12:33:45;2.20;65.90
50989;DHT22;37008;52.210;21.112;2023-02-28T12:36:14;1.60;65.50
50989;DHT22;37008;52.210;21.112;2023-02-28T12:38:45;1.80;65.50
50989;DHT22;37008;52.210;21.112;2023-02-28T12:42:01;2.30;65.60
50989;DHT22;37008;52.210;21.112;2023-02-28T12:44:06;2.90;66.10
50989;DHT22;37008;52.210;21.112;2023-02-28T12:46:41;2.60;66.00
50989;DHT22;37008;52.210;21.112;2023-02-28T12:49:34;2.40;65.90
50989;DHT22;37008;52.210;21.112;2023-02-28T12:52:04;2.40;65.90
50989;DHT22;37008;52.210;21.112;2023-02-28T12:54:50;2.40;65.70
50989;DHT22;37008;52.210;21.112;2023-02-28T13:00:12;2.60;65.60
50989;DHT22;37008;52.210;21.112;2023-02-28T13:06:22;2.70;65.40
50989;DHT22;37008;52.210;21.112;2023-02-28T13:11:40;2.70;63.50
50989;DHT22;37008;52.210;21.112;2023-02-28T13:16:50;2.70;63.60
50989;DHT22;37008;52.210;21.112;2023-02-28T13:19:18;2.70;63.50
50989;DHT22;37008;52.210;21.112;2023-02-28T13:21:45;2.70;63.70
50989;DHT22;37008;52.210;21.112;2023-02-28T13:29:37;2.70;62.90
50989;DHT22;37008;52.210;21.112;2023-02-28T13:39:59;2.80;62.50
50989;DHT22;37008;52.210;21.112;2023-02-28T13:42:36;2.80;62.40
50989;DHT22;37008;52.210;21.112;2023-02-28T13:47:42;2.90;62.70
50989;DHT22;37008;52.210;21.112;2023-02-28T13:58:41;2.90;62.40
50989;DHT22;37008;52.210;21.112;2023-02-28T14:06:48;2.90;61.70
50989;DHT22;37008;52.210;21.112;2023-02-28T14:09:39;2.90;61.50
50989;DHT22;37008;52.210;21.112;2023-02-28T14:12:58;2.90;61.40
50989;DHT22;37008;52.210;21.112;2023-02-28T14:18:29;2.90;61.30
50989;DHT22;37008;52.210;21.112;2023-02-28T14:21:26;2.90;61.00
50989;DHT22;37008;52.210;21.112;2023-02-28T14:24:25;2.90;60.80
50989;DHT22;37008;52.210;21.112;2023-02-28T14:30:26;2.90;60.90
50989;DHT22;37008;52.210;21.112;2023-02-28T14:38:21;2.90;61.00
50989;DHT22;37008;52.210;21.112;2023-02-28T14:40:52;2.80;61.20
50989;DHT22;37008;52.210;21.112;2023-02-28T14:43:24;2.80;61.20
50989;DHT22;37008;52.210;21.112;2023-02-28T14:45:59;2.80;61.40
50989;DHT22;37008;52.210;21.112;2023-02-28T14:48:26;2.80;61.40
50989;DHT22;37008;52.210;21.112;2023-02-28T14:50:55;2.80;61.20
50989;DHT22;37008;52.210;21.112;2023-02-28T14:53:27;2.80;60.70
50989;DHT22;37008;52.210;21.112;2023-02-28T14:55:53;2.80;60.80
50989;DHT22;37008;52.210;21.112;2023-02-28T14:58:28;2.80;60.70
50989;DHT22;37008;52.210;21.112;2023-02-28T15:01:00;2.80;60.70
50989;DHT22;37008;52.210;21.112;2023-02-28T15:03:30;2.70;60.50
50989;DHT22;37008;52.210;21.112;2023-02-28T15:05:59;2.70;60.70
50989;DHT22;37008;52.210;21.112;2023-02-28T15:08:26;2.70;60.90
50989;DHT22;37008;52.210;21.112;2023-02-28T15:13:39;2.60;61.00
50989;DHT22;37008;52.210;21.112;2023-02-28T15:16:36;2.60;61.20
50989;DHT22;37008;52.210;21.112;2023-02-28T15:21:50;2.50;61.50
50989;DHT22;37008;52.210;21.112;2023-02-28T15:24:21;2.50;61.60
50989;DHT22;37008;52.210;21.112;2023-02-28T15:26:58;2.40;61.50
50989;DHT22;37008;52.210;21.112;2023-02-28T15:29:28;2.40;61.60
50989;DHT22;37008;52.210;21.112;2023-02-28T15:32:07;2.30;62.50
50989;DHT22;37008;52.210;21.112;2023-02-28T15:34:43;2.20;61.90
50989;DHT22;37008;52.210;21.112;2023-02-28T15:39:55;2.20;62.40
50989;DHT22;37008;52.210;21.112;2023-02-28T15:42:23;2.10;62.70
50989;DHT22;37008;52.210;21.112;2023-02-28T15:44:54;2.00;63.20
50989;DHT22;37008;52.210;21.112;2023-02-28T15:47:27;2.00;63.70
50989;DHT22;37008;52.210;21.112;2023-02-28T15:50:00;1.90;64.00
50989;DHT22;37008;52.210;21.112;2023-02-28T15:53:08;1.90;64.50
50989;DHT22;37008;52.210;21.112;2023-02-28T15:55:29;1.90;64.80
50989;DHT22;37008;52.210;21.112;2023-02-28T15:58:01;1.80;65.10
50989;DHT22;37008;52.210;21.112;2023-02-28T16:00:29;1.70;65.40
50989;DHT22;37008;52.210;21.112;2023-02-28T16:02:55;1.70;65.90
50989;DHT22;37008;52.210;21.112;2023-02-28T16:05:24;1.50;66.30
50989;DHT22;37008;52.210;21.112;2023-02-28T16:08:15;1.40;66.70
50989;DHT22;37008;52.210;21.112;2023-02-28T16:10:41;1.20;67.10
50989;DHT22;37008;52.210;21.112;2023-02-28T16:13:09;1.10;67.50
50989;DHT22;37008;52.210;21.112;2023-02-28T16:15:41;1.00;67.80
50989;DHT22;37008;52.210;21.112;2023-02-28T16:18:12;0.90;68.20
50989;DHT22;37008;52.210;21.112;2023-02-28T16:20:38;0.90;68.60
50989;DHT22;37008;52.210;21.112;2023-02-28T16:23:04;0.70;69.70
50989;DHT22;37008;52.210;21.112;2023-02-28T16:25:39;0.70;69.40
50989;DHT22;37008;52.210;21.112;2023-02-28T16:28:25;0.60;70.00
50989;DHT22;37008;52.210;21.112;2023-02-28T16:30:55;0.50;70.30
50989;DHT22;37008;52.210;21.112;2023-02-28T16:33:20;0.40;70.70
50989;DHT22;37008;52.210;21.112;2023-02-28T16:35:46;0.40;71.10
50989;DHT22;37008;52.210;21.112;2023-02-28T16:38:12;0.30;71.40
50989;DHT22;37008;52.210;21.112;2023-02-28T16:40:37;0.30;71.80
50989;DHT22;37008;52.210;21.112;2023-02-28T16:43:19;0.20;72.20
50989;DHT22;37008;52.210;21.112;2023-02-28T16:45:46;0.10;72.60
50989;DHT22;37008;52.210;21.112;2023-02-28T16:48:15;0.10;72.80
50989;DHT22;37008;52.210;21.112;2023-02-28T16:50:42;0.00;73.10
50989;DHT22;37008;52.210;21.112;2023-02-28T16:53:09;-0.10;73.40
50989;DHT22;37008;52.210;21.112;2023-02-28T16:55:35;-0.10;73.70
50989;DHT22;37008;52.210;21.112;2023-02-28T16:58:02;-0.10;74.10
50989;DHT22;37008;52.210;21.112;2023-02-28T17:00:29;-0.10;74.30
50989;DHT22;37008;52.210;21.112;2023-02-28T17:03:00;-0.10;74.60
50989;DHT22;37008;52.210;21.112;2023-02-28T17:05:29;-0.10;74.90
50989;DHT22;37008;52.210;21.112;2023-02-28T17:07:58;-0.20;75.10
50989;DHT22;37008;52.210;21.112;2023-02-28T17:10:25;-0.10;75.50
50989;DHT22;37008;52.210;21.112;2023-02-28T17:12:51;-0.10;75.80
50989;DHT22;37008;52.210;21.112;2023-02-28T17:15:19;-0.10;76.00
50989;DHT22;37008;52.210;21.112;2023-02-28T17:17:45;-0.20;76.20
50989;DHT22;37008;52.210;21.112;2023-02-28T17:20:44;-0.20;76.40
50989;DHT22;37008;52.210;21.112;2023-02-28T17:23:40;-0.40;76.80
50989;DHT22;37008;52.210;21.112;2023-02-28T17:33:38;-0.40;78.00
50989;DHT22;37008;52.210;21.112;2023-02-28T17:36:23;-0.40;78.00
50989;DHT22;37008;52.210;21.112;2023-02-28T17:38:50;-0.40;78.20
50989;DHT22;37008;52.210;21.112;2023-02-28T17:41:16;-0.40;78.50
50989;DHT22;37008;52.210;21.112;2023-02-28T17:43:41;-0.40;78.80
50989;DHT22;37008;52.210;21.112;2023-02-28T17:46:33;-0.40;78.90
50989;DHT22;37008;52.210;21.112;2023-02-28T17:48:58;-0.40;79.70
50989;DHT22;37008;52.210;21.112;2023-02-28T17:51:25;-0.60;79.00
50989;DHT22;37008;52.210;21.112;2023-02-28T17:53:51;-0.70;79.40
50989;DHT22;37008;52.210;21.112;2023-02-28T17:56:22;-0.80;80.00
50989;DHT22;37008;52.210;21.112;2023-02-28T17:58:53;-0.90;80.40
50989;DHT22;37008;52.210;21.112;2023-02-28T18:01:20;-1.00;80.90
50989;DHT22;37008;52.210;21.112;2023-02-28T18:03:47;-1.10;81.50
50989;DHT22;37008;52.210;21.112;2023-02-28T18:06:36;-1.10;82.10
50989;DHT22;37008;52.210;21.112;2023-02-28T18:09:12;-1.10;82.60
50989;DHT22;37008;52.210;21.112;2023-02-28T18:11:37;-1.10;82.70
50989;DHT22;37008;52.210;21.112;2023-02-28T18:14:14;-1.20;83.00
50989;DHT22;37008;52.210;21.112;2023-02-28T18:16:41;-1.30;83.40
50989;DHT22;37008;52.210;21.112;2023-02-28T18:19:06;-1.30;84.10
50989;DHT22;37008;52.210;21.112;2023-02-28T18:21:34;-1.40;84.60
50989;DHT22;37008;52.210;21.112;2023-02-28T18:24:00;-1.50;85.10
50989;DHT22;37008;52.210;21.112;2023-02-28T18:26:26;-1.50;85.60
50989;DHT22;37008;52.210;21.112;2023-02-28T18:28:51;-1.50;86.20
50989;DHT22;37008;52.210;21.112;2023-02-28T18:31:19;-1.50;86.60
50989;DHT22;37008;52.210;21.112;2023-02-28T18:33:49;-1.60;86.90
50989;DHT22;37008;52.210;21.112;2023-02-28T18:36:16;-1.60;87.50
50989;DHT22;37008;52.210;21.112;2023-02-28T18:38:43;-1.80;88.00
50989;DHT22;37008;52.210;21.112;2023-02-28T18:41:08;-1.80;89.10
50989;DHT22;37008;52.210;21.112;2023-02-28T18:43:36;-1.80;90.00
50989;DHT22;37008;52.210;21.112;2023-02-28T18:46:06;-1.70;90.20
50989;DHT22;37008;52.210;21.112;2023-02-28T18:48:32;-1.60;90.30
50989;DHT22;37008;52.210;21.112;2023-02-28T18:50:58;-1.60;90.50
50989;DHT22;37008;52.210;21.112;2023-02-28T18:53:23;-1.60;90.70
50989;DHT22;37008;52.210;21.112;2023-02-28T18:55:49;-1.60;90.90
50989;DHT22;37008;52.210;21.112;2023-02-28T18:58:15;-1.60;91.00
50989;DHT22;37008;52.210;21.112;2023-02-28T19:00:40;-1.60;91.10
50989;DHT22;37008;52.210;21.112;2023-02-28T19:03:06;-1.60;91.20
50989;DHT22;37008;52.210;21.112;2023-02-28T19:05:32;-1.70;91.40
50989;DHT22;37008;52.210;21.112;2023-02-28T19:08:02;-1.70;91.70
50989;DHT22;37008;52.210;21.112;2023-02-28T19:10:29;-1.80;92.10
50989;DHT22;37008;52.210;21.112;2023-02-28T19:12:55;-1.90;91.90
50989;DHT22;37008;52.210;21.112;2023-02-28T19:15:20;-2.00;92.30
50989;DHT22;37008;52.210;21.112;2023-02-28T19:17:47;-2.00;92.40
50989;DHT22;37008;52.210;21.112;2023-02-28T19:20:12;-2.10;92.60
50989;DHT22;37008;52.210;21.112;2023-02-28T19:22:38;-2.20;93.10